createdAt,value
2018-10-11T00:00:59.554Z,17.63
2018-10-11T00:03:28.567Z,17.57
2018-10-11T00:05:57.611Z,17.55
2018-10-11T00:08:26.554Z,17.62
2018-10-11T00:10:55.551Z,17.62
2018-10-11T00:13:25.318Z,17.62
2018-10-11T00:15:54.436Z,17.63
2018-10-11T00:18:23.481Z,17.64
2018-10-11T00:20:52.690Z,17.55
2018-10-11T00:23:21.820Z,17.56
2018-10-11T00:25:50.852Z,17.55
2018-10-11T00:28:19.844Z,17.53
2018-10-11T00:30:48.879Z,17.50
2018-10-11T00:33:17.790Z,17.55
2018-10-11T00:35:46.819Z,17.54
2018-10-11T00:38:16.486Z,17.53
2018-10-11T00:40:45.612Z,17.43
2018-10-11T00:43:14.756Z,17.50
2018-10-11T00:45:43.824Z,17.44
2018-10-11T00:48:12.895Z,17.41
2018-10-11T00:50:41.855Z,17.38
2018-10-11T00:53:10.894Z,17.43
2018-10-11T00:55:39.846Z,17.32
2018-10-11T00:58:08.868Z,17.32
2018-10-11T01:00:37.946Z,17.24
2018-10-11T01:03:06.947Z,17.21
2018-10-11T01:05:35.981Z,17.12
2018-10-11T01:08:04.941Z,17.19
2018-10-11T01:10:33.880Z,17.22
2018-10-11T01:13:02.936Z,17.13
2018-10-11T01:15:31.911Z,17.13
2018-10-11T01:18:00.911Z,17.15
2018-10-11T01:20:30.440Z,17.03
2018-10-11T01:22:59.436Z,16.99
2018-10-11T01:25:28.425Z,16.92
2018-10-11T01:27:57.403Z,16.98
2018-10-11T01:30:26.489Z,16.98
2018-10-11T01:32:55.546Z,16.87
2018-10-11T01:35:24.983Z,16.87
2018-10-11T01:37:54.313Z,16.83
2018-10-11T01:40:23.305Z,16.76
2018-10-11T01:43:02.089Z,16.81
2018-10-11T01:45:31.199Z,16.76
2018-10-11T01:48:00.196Z,16.68
2018-10-11T01:50:29.388Z,16.69
2018-10-11T01:52:58.820Z,16.63
2018-10-11T01:55:29.018Z,16.73
2018-10-11T01:57:59.170Z,16.77
2018-10-11T02:00:28.166Z,16.73
2018-10-11T02:02:58.580Z,16.65
2018-10-11T02:05:28.151Z,16.50
2018-10-11T02:07:58.201Z,16.53
2018-10-11T02:10:28.310Z,16.48
2018-10-11T02:12:58.454Z,16.56
2018-10-11T02:15:28.141Z,16.44
2018-10-11T02:17:57.850Z,16.49
2018-10-11T02:20:27.497Z,16.44
2018-10-11T02:22:56.671Z,16.42
2018-10-11T02:25:25.693Z,16.35
2018-10-11T02:27:54.743Z,16.26
2018-10-11T02:30:23.845Z,16.24
2018-10-11T02:32:53.022Z,16.34
2018-10-11T02:35:22.067Z,16.28
2018-10-11T02:37:51.116Z,16.22
2018-10-11T02:40:20.170Z,16.25
2018-10-11T02:42:49.116Z,16.16
2018-10-11T02:45:18.156Z,16.02
2018-10-11T02:47:47.155Z,16.05
2018-10-11T02:50:16.138Z,16.16
2018-10-11T02:52:45.157Z,16.09
2018-10-11T02:55:20.666Z,16.09
2018-10-11T02:58:01.360Z,16.04
2018-10-11T03:00:30.919Z,16.04
2018-10-11T03:03:01.476Z,16.18
2018-10-11T03:05:31.207Z,16.20
2018-10-11T03:08:00.197Z,16.15
2018-10-11T03:10:29.503Z,16.12
2018-10-11T03:12:58.482Z,16.09
2018-10-11T03:15:27.475Z,16.06
2018-10-11T03:17:56.450Z,16.08
2018-10-11T03:20:25.449Z,16.02
2018-10-11T03:22:54.443Z,15.94
2018-10-11T03:25:23.435Z,15.99
2018-10-11T03:27:52.435Z,15.99
2018-10-11T03:30:21.403Z,15.94
2018-10-11T03:32:50.435Z,15.92
2018-10-11T03:35:19.448Z,15.92
2018-10-11T03:37:48.435Z,16.00
2018-10-11T03:40:17.434Z,15.98
2018-10-11T03:42:46.488Z,16.11
2018-10-11T03:45:15.474Z,16.07
2018-10-11T03:47:44.467Z,16.05
2018-10-11T03:50:13.476Z,16.03
2018-10-11T03:52:42.480Z,15.99
2018-10-11T03:55:11.491Z,15.95
2018-10-11T03:57:40.453Z,15.94
2018-10-11T04:00:09.470Z,15.89
2018-10-11T04:02:38.442Z,15.87
2018-10-11T04:05:07.464Z,15.82
2018-10-11T04:07:36.453Z,15.76
2018-10-11T04:10:05.483Z,15.83
2018-10-11T04:12:34.556Z,15.81
2018-10-11T04:15:03.522Z,15.76
2018-10-11T04:17:32.526Z,15.76
2018-10-11T04:20:01.529Z,15.75
2018-10-11T04:22:31.508Z,15.63
2018-10-11T04:25:00.501Z,15.59
2018-10-11T04:27:29.500Z,15.70
2018-10-11T04:29:58.541Z,15.70
2018-10-11T04:32:27.508Z,15.59
2018-10-11T04:34:56.499Z,15.48
2018-10-11T04:37:25.478Z,15.48
2018-10-11T04:39:54.499Z,15.40
2018-10-11T04:42:23.494Z,15.38
2018-10-11T04:44:52.495Z,15.41
2018-10-11T04:47:21.486Z,15.48
2018-10-11T04:49:50.484Z,15.52
2018-10-11T04:52:19.442Z,15.72
2018-10-11T04:54:48.488Z,15.71
2018-10-11T04:57:17.535Z,15.61
2018-10-11T04:59:46.696Z,15.63
2018-10-11T05:02:15.627Z,15.73
2018-10-11T05:04:44.672Z,15.74
2018-10-11T05:07:13.762Z,15.85
2018-10-11T05:09:42.737Z,15.89
2018-10-11T05:12:11.684Z,15.84
2018-10-11T05:14:40.950Z,15.93
2018-10-11T05:17:10.071Z,15.88
2018-10-11T05:19:39.811Z,15.99
2018-10-11T05:22:08.805Z,16.10
2018-10-11T05:24:37.877Z,16.13
2018-10-11T05:27:06.899Z,16.13
2018-10-11T05:29:35.988Z,16.14
2018-10-11T05:32:05.080Z,16.14
2018-10-11T05:34:34.009Z,16.21
2018-10-11T05:37:03.003Z,16.20
2018-10-11T05:39:32.016Z,16.32
2018-10-11T05:42:00.981Z,16.30
2018-10-11T05:44:30.022Z,16.31
2018-10-11T05:46:58.911Z,16.28
2018-10-11T05:49:27.942Z,16.26
2018-10-11T05:51:56.983Z,16.30
2018-10-11T05:54:26.062Z,16.42
2018-10-11T05:56:55.101Z,16.62
2018-10-11T05:59:24.143Z,16.80
2018-10-11T06:01:53.172Z,16.89
2018-10-11T06:04:22.197Z,17.07
2018-10-11T06:06:51.290Z,17.14
2018-10-11T06:09:20.502Z,17.23
2018-10-11T06:11:49.710Z,17.47
2018-10-11T06:14:18.658Z,17.70
2018-10-11T06:16:47.750Z,17.79
2018-10-11T06:19:16.757Z,17.72
2018-10-11T06:21:45.834Z,17.82
2018-10-11T06:24:14.838Z,17.98
2018-10-11T06:26:43.899Z,18.04
2018-10-11T06:29:12.894Z,18.17
2018-10-11T06:31:42.534Z,18.19
2018-10-11T06:34:11.602Z,18.24
2018-10-11T06:36:41.693Z,18.19
2018-10-11T06:39:11.527Z,18.73
2018-10-11T06:41:40.472Z,18.59
2018-10-11T06:44:10.017Z,18.79
2018-10-11T06:46:39.176Z,18.69
2018-10-11T06:49:08.566Z,18.60
2018-10-11T06:51:37.631Z,19.02
2018-10-11T06:54:06.750Z,18.98
2018-10-11T06:56:35.708Z,18.66
2018-10-11T06:59:04.722Z,18.78
2018-10-11T07:01:33.796Z,18.71
2018-10-11T07:04:02.792Z,18.54
2018-10-11T07:06:31.790Z,18.95
2018-10-11T07:09:00.796Z,19.20
2018-10-11T07:11:29.768Z,19.21
2018-10-11T07:13:59.831Z,19.40
2018-10-11T07:16:28.883Z,19.41
2018-10-11T07:18:58.111Z,19.35
2018-10-11T07:21:27.322Z,19.38
2018-10-11T07:23:56.342Z,19.38
2018-10-11T07:26:25.370Z,19.65
2018-10-11T07:28:54.419Z,19.87
2018-10-11T07:31:23.509Z,19.87
2018-10-11T07:33:52.529Z,19.95
2018-10-11T07:36:21.673Z,19.71
2018-10-11T07:38:50.695Z,20.11
2018-10-11T07:41:19.658Z,20.33
2018-10-11T07:43:48.668Z,20.25
2018-10-11T07:46:17.678Z,20.42
2018-10-11T07:48:46.662Z,20.54
2018-10-11T07:51:15.675Z,20.60
2018-10-11T07:53:44.680Z,20.63
2018-10-11T07:56:13.746Z,20.70
2018-10-11T07:58:42.782Z,20.66
2018-10-11T08:01:11.817Z,21.08
2018-10-11T08:03:40.827Z,21.06
2018-10-11T08:06:09.794Z,21.00
2018-10-11T08:08:38.767Z,21.18
2018-10-11T08:11:08.180Z,21.47
2018-10-11T08:13:37.053Z,22.03
2018-10-11T08:16:06.760Z,21.98
2018-10-11T08:18:35.747Z,22.04
2018-10-11T08:21:04.727Z,21.65
2018-10-11T08:23:33.928Z,21.69
2018-10-11T08:26:03.511Z,21.80
2018-10-11T08:28:31.980Z,21.98
2018-10-11T08:31:00.991Z,22.30
2018-10-11T08:33:30.004Z,21.97
2018-10-11T08:35:58.987Z,22.41
2018-10-11T08:38:28.045Z,21.95
2018-10-11T08:40:57.113Z,22.03
2018-10-11T08:43:26.620Z,22.50
2018-10-11T08:45:55.607Z,22.82
2018-10-11T08:48:24.669Z,22.95
2018-10-11T08:50:53.691Z,23.09
2018-10-11T08:53:22.651Z,23.47
2018-10-11T08:55:51.631Z,23.28
2018-10-11T08:58:20.651Z,22.90
2018-10-11T09:00:49.614Z,23.43
2018-10-11T09:03:18.700Z,23.23
2018-10-11T09:05:47.604Z,23.33
2018-10-11T09:08:16.588Z,22.92
2018-10-11T09:10:45.671Z,23.06
2018-10-11T09:13:14.661Z,22.86
2018-10-11T09:15:44.714Z,23.23
2018-10-11T09:18:13.745Z,23.44
2018-10-11T09:20:42.782Z,22.75
2018-10-11T09:23:11.858Z,23.55
2018-10-11T09:25:40.901Z,23.44
2018-10-11T09:28:10.100Z,23.58
2018-10-11T09:30:39.115Z,23.31
2018-10-11T09:33:08.252Z,23.15
2018-10-11T09:35:37.308Z,23.63
2018-10-11T09:38:06.308Z,24.16
2018-10-11T09:40:35.315Z,24.54
2018-10-11T09:43:04.454Z,24.60
2018-10-11T09:45:33.466Z,24.33
2018-10-11T09:48:02.537Z,24.70
2018-10-11T09:50:32.367Z,25.07
2018-10-11T09:53:01.396Z,25.27
2018-10-11T09:55:30.384Z,26.33
2018-10-11T09:57:59.439Z,25.45
2018-10-11T10:00:37.586Z,25.61
2018-10-11T10:03:06.630Z,25.93
2018-10-11T10:05:35.674Z,25.29
2018-10-11T10:08:04.629Z,24.57
2018-10-11T10:10:33.664Z,24.71
2018-10-11T10:13:02.619Z,24.40
2018-10-11T10:15:31.689Z,25.49
2018-10-11T10:18:00.648Z,26.14
2018-10-11T10:20:29.630Z,26.45
2018-10-11T10:22:58.666Z,26.49
2018-10-11T10:25:28.184Z,26.43
2018-10-11T10:27:56.696Z,26.35
2018-10-11T10:30:31.024Z,26.35
2018-10-11T10:33:00.007Z,26.36
2018-10-11T10:35:29.017Z,25.84
2018-10-11T10:37:58.091Z,25.87
2018-10-11T10:40:27.139Z,26.82
2018-10-11T10:42:56.495Z,25.97
2018-10-11T10:45:25.506Z,25.92
2018-10-11T10:47:54.522Z,26.01
2018-10-11T10:50:23.516Z,26.06
2018-10-11T10:52:52.555Z,25.80
2018-10-11T10:55:21.802Z,26.16
2018-10-11T10:57:50.779Z,26.18
2018-10-11T11:00:19.781Z,25.52
2018-10-11T11:02:48.783Z,25.59
2018-10-11T11:05:17.774Z,26.43
2018-10-11T11:07:46.858Z,26.64
2018-10-11T11:10:15.825Z,26.01
2018-10-11T11:12:44.851Z,25.65
2018-10-11T11:15:13.812Z,26.15
2018-10-11T11:17:42.869Z,26.45
2018-10-11T11:20:11.964Z,26.95
2018-10-11T11:22:40.912Z,26.27
2018-10-11T11:25:09.942Z,26.81
2018-10-11T11:27:38.923Z,26.98
2018-10-11T11:30:07.956Z,27.01
2018-10-11T11:32:36.907Z,27.40
2018-10-11T11:35:05.929Z,27.70
2018-10-11T11:37:35.852Z,28.07
2018-10-11T11:40:05.233Z,27.45
2018-10-11T11:42:34.254Z,27.87
2018-10-11T11:45:03.374Z,27.73
2018-10-11T11:47:32.562Z,27.90
2018-10-11T11:50:01.627Z,26.85
2018-10-11T11:52:30.653Z,26.10
2018-10-11T11:54:59.707Z,26.37
2018-10-11T11:57:28.698Z,26.64
2018-10-11T11:59:57.665Z,26.76
2018-10-11T12:02:26.705Z,27.53
2018-10-11T12:04:55.758Z,28.28
2018-10-11T12:07:24.748Z,27.57
2018-10-11T12:09:53.773Z,27.93
2018-10-11T12:13:06.625Z,27.19
2018-10-11T12:15:36.399Z,26.41
2018-10-11T12:18:06.212Z,27.63
2018-10-11T12:20:36.360Z,28.23
2018-10-11T12:23:06.463Z,28.27
2018-10-11T12:25:35.637Z,27.30
2018-10-11T12:28:04.644Z,27.52
2018-10-11T12:30:33.650Z,29.03
2018-10-11T12:33:02.644Z,28.96
2018-10-11T12:35:32.636Z,28.87
2018-10-11T12:38:01.651Z,28.97
2018-10-11T12:40:30.640Z,29.79
2018-10-11T12:42:59.629Z,29.68
2018-10-11T12:45:28.614Z,28.72
2018-10-11T12:47:57.646Z,28.76
2018-10-11T12:50:26.640Z,28.40
2018-10-11T12:52:55.590Z,28.27
2018-10-11T12:55:24.592Z,28.79
2018-10-11T12:57:53.615Z,27.78
2018-10-11T13:00:22.654Z,27.66
2018-10-11T13:02:51.789Z,27.62
2018-10-11T13:05:20.694Z,27.92
2018-10-11T13:07:50.158Z,28.06
2018-10-11T13:10:19.210Z,27.67
2018-10-11T13:12:48.178Z,27.24
2018-10-11T13:15:17.221Z,27.41
2018-10-11T13:17:46.262Z,27.39
2018-10-11T13:20:15.276Z,28.06
2018-10-11T13:22:44.248Z,28.66
2018-10-11T13:25:13.243Z,28.07
2018-10-11T13:27:42.226Z,28.16
2018-10-11T13:30:11.424Z,27.28
2018-10-11T13:32:40.421Z,26.91
2018-10-11T13:35:09.503Z,26.83
2018-10-11T13:37:38.409Z,27.43
2018-10-11T13:40:07.806Z,27.26
2018-10-11T13:42:36.805Z,27.33
2018-10-11T13:45:05.901Z,27.90
2018-10-11T13:47:37.881Z,28.18
2018-10-11T13:50:03.937Z,27.35
2018-10-11T13:52:32.884Z,26.67
2018-10-11T13:55:08.120Z,27.15
2018-10-11T13:57:31.436Z,27.77
2018-10-11T13:59:59.917Z,27.69
2018-10-11T14:02:28.930Z,27.06
2018-10-11T14:04:58.000Z,27.33
2018-10-11T14:07:27.990Z,26.67
2018-10-11T14:09:56.962Z,26.43
2018-10-11T14:12:25.985Z,26.79
2018-10-11T14:14:54.992Z,27.33
2018-10-11T14:17:23.990Z,26.92
2018-10-11T14:19:52.977Z,26.68
2018-10-11T14:22:21.979Z,26.68
2018-10-11T14:24:50.972Z,26.96
2018-10-11T14:27:19.939Z,26.86
2018-10-11T14:29:48.929Z,26.55
2018-10-11T14:32:17.935Z,26.48
2018-10-11T14:34:46.903Z,26.59
2018-10-11T14:37:16.018Z,26.51
2018-10-11T14:39:44.922Z,26.63
2018-10-11T14:42:14.026Z,26.53
2018-10-11T14:44:43.030Z,26.36
2018-10-11T14:47:12.125Z,26.44
2018-10-11T14:49:41.135Z,26.24
2018-10-11T14:52:10.324Z,26.14
2018-10-11T14:54:39.429Z,25.89
2018-10-11T14:57:08.473Z,25.91
2018-10-11T14:59:37.578Z,25.92
2018-10-11T15:02:06.488Z,25.96
2018-10-11T15:04:35.472Z,25.85
2018-10-11T15:07:04.471Z,25.61
2018-10-11T15:09:33.464Z,25.84
2018-10-11T15:12:02.494Z,25.58
2018-10-11T15:14:31.563Z,25.40
2018-10-11T15:17:00.573Z,25.52
2018-10-11T15:19:29.532Z,25.49
2018-10-11T15:21:58.505Z,25.63
2018-10-11T15:24:27.530Z,25.68
2018-10-11T15:26:56.573Z,25.26
2018-10-11T15:29:25.684Z,25.10
2018-10-11T15:31:54.623Z,25.16
2018-10-11T15:34:23.619Z,24.95
2018-10-11T15:36:52.658Z,24.85
2018-10-11T15:39:21.679Z,24.73
2018-10-11T15:41:50.743Z,24.64
2018-10-11T15:44:19.823Z,24.48
2018-10-11T15:46:48.923Z,24.45
2018-10-11T15:49:18.048Z,24.37
2018-10-11T15:51:46.970Z,24.33
2018-10-11T15:54:15.977Z,24.18
2018-10-11T15:56:44.976Z,24.09
2018-10-11T15:59:14.059Z,23.88
2018-10-11T16:01:43.064Z,23.76
2018-10-11T16:04:12.026Z,23.68
2018-10-11T16:06:41.154Z,23.56
2018-10-11T16:09:10.760Z,23.54
2018-10-11T16:11:39.641Z,23.42
2018-10-11T16:14:08.670Z,23.32
2018-10-11T16:16:37.663Z,23.20
2018-10-11T16:19:06.858Z,23.14
2018-10-11T16:21:35.908Z,23.13
2018-10-11T16:24:04.952Z,22.93
2018-10-11T16:26:33.936Z,22.90
2018-10-11T16:29:02.896Z,22.80
2018-10-11T16:31:31.972Z,22.73
2018-10-11T16:34:01.178Z,22.62
2018-10-11T16:36:30.382Z,22.56
2018-10-11T16:38:59.447Z,22.41
2018-10-11T16:41:28.381Z,22.33
2018-10-11T16:43:57.381Z,22.26
2018-10-11T16:46:26.365Z,22.35
2018-10-11T16:48:55.371Z,22.27
2018-10-11T16:51:24.341Z,22.24
2018-10-11T16:53:53.332Z,22.22
2018-10-11T16:56:22.341Z,22.12
2018-10-11T16:58:51.323Z,22.04
2018-10-11T17:01:20.463Z,21.94
2018-10-11T17:03:49.436Z,21.91
2018-10-11T17:06:18.445Z,21.82
2018-10-11T17:08:47.422Z,21.75
2018-10-11T17:11:16.432Z,21.75
2018-10-11T17:13:45.398Z,21.70
2018-10-11T17:16:14.647Z,21.65
2018-10-11T17:18:43.718Z,21.59
2018-10-11T17:21:12.734Z,21.58
2018-10-11T17:23:41.828Z,21.51
2018-10-11T17:26:10.768Z,21.39
2018-10-11T17:28:39.849Z,21.48
2018-10-11T17:31:09.070Z,21.36
2018-10-11T17:33:38.144Z,21.27
2018-10-11T17:36:07.707Z,21.10
2018-10-11T17:38:36.968Z,21.01
2018-10-11T17:41:06.270Z,20.96
2018-10-11T17:43:35.460Z,20.92
2018-10-11T17:46:04.650Z,20.77
2018-10-11T17:48:33.836Z,20.62
2018-10-11T17:51:02.983Z,20.64
2018-10-11T17:53:31.987Z,20.52
2018-10-11T17:56:01.105Z,20.52
2018-10-11T17:58:30.135Z,20.50
2018-10-11T18:00:59.183Z,20.37
2018-10-11T18:03:29.035Z,20.35
2018-10-11T18:05:58.094Z,20.30
2018-10-11T18:08:27.054Z,20.23
2018-10-11T18:10:56.175Z,20.21
2018-10-11T18:13:25.239Z,20.27
2018-10-11T18:15:54.281Z,20.26
2018-10-11T18:18:23.258Z,20.30
2018-10-11T18:20:52.283Z,20.34
2018-10-11T18:23:21.333Z,20.36
2018-10-11T18:25:50.366Z,20.30
2018-10-11T18:28:19.418Z,20.27
2018-10-11T18:30:48.502Z,20.18
2018-10-11T18:33:17.532Z,20.01
2018-10-11T18:35:46.824Z,19.84
2018-10-11T18:38:15.733Z,19.66
2018-10-11T18:40:44.726Z,19.57
2018-10-11T18:43:13.738Z,19.45
2018-10-11T18:45:43.061Z,19.27
2018-10-11T18:48:12.150Z,19.03
2018-10-11T18:50:41.301Z,18.94
2018-10-11T18:53:10.351Z,18.82
2018-10-11T18:55:39.416Z,18.81
2018-10-11T18:58:08.506Z,18.71
2018-10-11T19:00:37.712Z,18.69
2018-10-11T19:03:07.236Z,18.71
2018-10-11T19:05:36.270Z,18.86
2018-10-11T19:08:05.309Z,19.10
2018-10-11T19:10:34.328Z,19.13
2018-10-11T19:13:03.688Z,19.30
2018-10-11T19:15:32.690Z,19.39
2018-10-11T19:18:01.699Z,19.46
2018-10-11T19:20:30.675Z,19.60
2018-10-11T19:22:59.709Z,19.64
2018-10-11T19:25:28.792Z,19.81
2018-10-11T19:27:57.981Z,19.80
2018-10-11T19:30:26.995Z,19.85
2018-10-11T19:32:56.072Z,19.86
2018-10-11T19:35:25.045Z,19.92
2018-10-11T19:37:54.099Z,19.91
2018-10-11T19:40:23.211Z,19.97
2018-10-11T19:42:52.237Z,19.93
2018-10-11T19:45:21.232Z,19.77
2018-10-11T19:47:50.228Z,19.74
2018-10-11T19:50:19.223Z,19.76
2018-10-11T19:52:48.206Z,19.69
2018-10-11T19:55:17.198Z,19.66
2018-10-11T19:57:46.556Z,19.60
2018-10-11T20:00:15.760Z,19.73
2018-10-11T20:02:44.800Z,19.63
2018-10-11T20:05:13.792Z,19.54
2018-10-11T20:07:42.795Z,19.57
2018-10-11T20:10:11.777Z,19.47
2018-10-11T20:12:40.836Z,19.42
2018-10-11T20:15:09.967Z,19.45
2018-10-11T20:17:39.012Z,19.49
2018-10-11T20:20:08.071Z,19.46
2018-10-11T20:22:37.096Z,19.48
2018-10-11T20:25:06.655Z,19.45
2018-10-11T20:27:35.914Z,19.37
2018-10-11T20:30:05.647Z,19.32
2018-10-11T20:32:34.839Z,19.31
2018-10-11T20:35:04.191Z,19.34
2018-10-11T20:37:33.826Z,19.31
2018-10-11T20:40:03.174Z,19.32
2018-10-11T20:42:32.166Z,19.31
2018-10-11T20:45:01.152Z,19.35
2018-10-11T20:47:30.257Z,19.30
2018-10-11T20:49:59.349Z,19.30
2018-10-11T20:52:28.750Z,19.27
2018-10-11T20:54:57.794Z,19.24
2018-10-11T20:57:26.833Z,19.15
2018-10-11T20:59:55.796Z,19.14
2018-10-11T21:02:24.885Z,19.08
2018-10-11T21:04:53.937Z,19.06
2018-10-11T21:07:22.923Z,18.99
2018-10-11T21:09:52.128Z,18.99
2018-10-11T21:12:21.144Z,18.89
2018-10-11T21:14:50.149Z,18.75
2018-10-11T21:17:19.155Z,18.78
2018-10-11T21:19:48.249Z,18.78
2018-10-11T21:22:17.301Z,18.68
2018-10-11T21:24:46.364Z,18.59
2018-10-11T21:27:15.460Z,18.55
2018-10-11T21:29:44.565Z,18.55
2018-10-11T21:32:13.616Z,18.53
2018-10-11T21:34:42.625Z,18.51
2018-10-11T21:37:11.648Z,18.39
2018-10-11T21:39:40.761Z,18.36
2018-10-11T21:42:09.816Z,18.39
2018-10-11T21:44:38.958Z,18.22
2018-10-11T21:47:08.110Z,18.00
2018-10-11T21:49:37.213Z,18.01
2018-10-11T21:52:06.197Z,18.04
2018-10-11T21:54:35.165Z,18.04
2018-10-11T21:57:04.129Z,18.07
2018-10-11T21:59:33.301Z,18.04
2018-10-11T22:02:02.435Z,17.95
2018-10-11T22:04:31.467Z,17.98
2018-10-11T22:07:00.539Z,17.94
2018-10-11T22:09:29.575Z,17.94
2018-10-11T22:11:58.667Z,17.89
2018-10-11T22:14:27.778Z,17.86
2018-10-11T22:16:57.002Z,17.92
2018-10-11T22:19:26.072Z,17.85
2018-10-11T22:21:55.142Z,17.76
2018-10-11T22:24:24.199Z,17.71
2018-10-11T22:26:53.241Z,17.67
2018-10-11T22:29:22.244Z,17.65
2018-10-11T22:31:51.318Z,17.65
2018-10-11T22:34:20.280Z,17.62
2018-10-11T22:36:49.391Z,17.53
2018-10-11T22:39:18.306Z,17.46
2018-10-11T22:41:47.302Z,17.43
2018-10-11T22:44:16.383Z,17.39
2018-10-11T22:46:45.354Z,17.35
2018-10-11T22:49:14.416Z,17.26
2018-10-11T22:51:43.548Z,17.21
2018-10-11T22:54:12.603Z,17.28
2018-10-11T22:56:41.649Z,17.29
2018-10-11T22:59:10.740Z,17.28
2018-10-11T23:01:39.743Z,17.21
2018-10-11T23:04:08.748Z,17.20
2018-10-11T23:06:37.822Z,17.18
2018-10-11T23:09:07.740Z,17.25
2018-10-11T23:11:36.761Z,17.23
2018-10-11T23:14:06.020Z,17.24
2018-10-11T23:16:35.024Z,17.22
2018-10-11T23:19:04.067Z,17.26
2018-10-11T23:21:33.007Z,17.17
2018-10-11T23:24:02.068Z,17.18
2018-10-11T23:26:31.098Z,17.10
2018-10-11T23:29:00.103Z,17.02
2018-10-11T23:31:29.123Z,17.03
2018-10-11T23:33:58.123Z,17.04
2018-10-11T23:36:27.096Z,17.05
2018-10-11T23:38:56.117Z,17.11
2018-10-11T23:41:25.203Z,17.15
2018-10-11T23:43:54.402Z,17.15
2018-10-11T23:46:23.656Z,17.15
2018-10-11T23:48:52.679Z,17.13
2018-10-11T23:51:21.795Z,17.13
2018-10-11T23:53:50.841Z,17.14
2018-10-11T23:56:19.877Z,17.04
2018-10-11T23:58:48.871Z,16.93
